sensor_id;sensor_type;location;lat;lon;timestamp;P1;durP1;ratioP1;P2;durP2;ratioP2
19645;SDS011;9971;52.446;13.452;2023-06-26T00:04:19;1.17;;;1.17;;
19645;SDS011;9971;52.446;13.452;2023-06-26T00:09:21;1.10;;;1.10;;
19645;SDS011;9971;52.446;13.452;2023-06-26T00:14:24;1.35;;;1.25;;
19645;SDS011;9971;52.446;13.452;2023-06-26T00:19:26;0.90;;;0.90;;
19645;SDS011;9971;52.446;13.452;2023-06-26T00:24:28;1.02;;;1.02;;
19645;SDS011;9971;52.446;13.452;2023-06-26T00:29:32;0.90;;;0.90;;
19645;SDS011;9971;52.446;13.452;2023-06-26T00:34:34;1.10;;;1.10;;
19645;SDS011;9971;52.446;13.452;2023-06-26T00:39:36;1.20;;;1.10;;
19645;SDS011;9971;52.446;13.452;2023-06-26T00:44:39;1.00;;;1.00;;
19645;SDS011;9971;52.446;13.452;2023-06-26T00:49:42;1.07;;;1.07;;
19645;SDS011;9971;52.446;13.452;2023-06-26T00:54:44;1.10;;;1.10;;
19645;SDS011;9971;52.446;13.452;2023-06-26T00:59:47;0.98;;;0.98;;
19645;SDS011;9971;52.446;13.452;2023-06-26T01:04:50;0.90;;;0.90;;
19645;SDS011;9971;52.446;13.452;2023-06-26T01:09:52;1.00;;;1.00;;
19645;SDS011;9971;52.446;13.452;2023-06-26T01:14:54;1.70;;;1.10;;
19645;SDS011;9971;52.446;13.452;2023-06-26T01:19:59;0.88;;;0.88;;
19645;SDS011;9971;52.446;13.452;2023-06-26T01:25:03;0.70;;;0.70;;
19645;SDS011;9971;52.446;13.452;2023-06-26T01:30:09;1.00;;;1.00;;
19645;SDS011;9971;52.446;13.452;2023-06-26T01:35:12;1.10;;;1.10;;
19645;SDS011;9971;52.446;13.452;2023-06-26T01:40:14;0.90;;;0.90;;
19645;SDS011;9971;52.446;13.452;2023-06-26T01:45:19;0.82;;;0.82;;
19645;SDS011;9971;52.446;13.452;2023-06-26T01:50:22;0.90;;;0.90;;
19645;SDS011;9971;52.446;13.452;2023-06-26T01:55:26;1.00;;;1.00;;
19645;SDS011;9971;52.446;13.452;2023-06-26T02:00:26;1.00;;;1.00;;
19645;SDS011;9971;52.446;13.452;2023-06-26T02:05:28;1.00;;;1.00;;
19645;SDS011;9971;52.446;13.452;2023-06-26T02:10:31;1.10;;;1.10;;
19645;SDS011;9971;52.446;13.452;2023-06-26T02:15:35;1.10;;;1.10;;
19645;SDS011;9971;52.446;13.452;2023-06-26T02:20:38;0.97;;;0.97;;
19645;SDS011;9971;52.446;13.452;2023-06-26T02:25:41;0.82;;;0.82;;
19645;SDS011;9971;52.446;13.452;2023-06-26T02:30:43;0.82;;;0.82;;
19645;SDS011;9971;52.446;13.452;2023-06-26T02:35:46;0.90;;;0.90;;
19645;SDS011;9971;52.446;13.452;2023-06-26T02:40:48;1.00;;;1.00;;
19645;SDS011;9971;52.446;13.452;2023-06-26T02:45:51;1.00;;;1.00;;
19645;SDS011;9971;52.446;13.452;2023-06-26T02:50:53;1.00;;;1.00;;
19645;SDS011;9971;52.446;13.452;2023-06-26T02:55:56;1.12;;;1.07;;
19645;SDS011;9971;52.446;13.452;2023-06-26T03:00:58;1.13;;;1.13;;
19645;SDS011;9971;52.446;13.452;2023-06-26T03:06:01;0.80;;;0.80;;
19645;SDS011;9971;52.446;13.452;2023-06-26T03:11:03;1.00;;;1.00;;
19645;SDS011;9971;52.446;13.452;2023-06-26T03:16:06;1.00;;;1.00;;
19645;SDS011;9971;52.446;13.452;2023-06-26T03:21:08;0.90;;;0.90;;
19645;SDS011;9971;52.446;13.452;2023-06-26T03:26:10;0.97;;;0.97;;
19645;SDS011;9971;52.446;13.452;2023-06-26T03:31:12;1.07;;;1.07;;
19645;SDS011;9971;52.446;13.452;2023-06-26T03:36:15;1.00;;;1.00;;
19645;SDS011;9971;52.446;13.452;2023-06-26T03:41:17;1.15;;;1.12;;
19645;SDS011;9971;52.446;13.452;2023-06-26T03:46:20;0.93;;;0.93;;
19645;SDS011;9971;52.446;13.452;2023-06-26T03:51:22;1.00;;;1.00;;
19645;SDS011;9971;52.446;13.452;2023-06-26T03:56:24;1.10;;;1.10;;
19645;SDS011;9971;52.446;13.452;2023-06-26T04:01:28;1.00;;;1.00;;
19645;SDS011;9971;52.446;13.452;2023-06-26T04:06:30;1.13;;;1.13;;
19645;SDS011;9971;52.446;13.452;2023-06-26T04:11:33;1.20;;;1.20;;
19645;SDS011;9971;52.446;13.452;2023-06-26T04:16:35;1.07;;;1.07;;
19645;SDS011;9971;52.446;13.452;2023-06-26T04:21:37;1.05;;;1.05;;
19645;SDS011;9971;52.446;13.452;2023-06-26T04:26:40;0.95;;;0.95;;
19645;SDS011;9971;52.446;13.452;2023-06-26T04:31:42;1.05;;;1.05;;
19645;SDS011;9971;52.446;13.452;2023-06-26T04:36:45;1.10;;;1.10;;
19645;SDS011;9971;52.446;13.452;2023-06-26T04:41:48;1.32;;;1.27;;
19645;SDS011;9971;52.446;13.452;2023-06-26T04:46:50;1.25;;;1.25;;
19645;SDS011;9971;52.446;13.452;2023-06-26T04:51:53;1.32;;;1.22;;
19645;SDS011;9971;52.446;13.452;2023-06-26T04:56:55;1.30;;;1.30;;
19645;SDS011;9971;52.446;13.452;2023-06-26T05:01:57;1.17;;;1.17;;
19645;SDS011;9971;52.446;13.452;2023-06-26T05:06:59;1.27;;;1.27;;
19645;SDS011;9971;52.446;13.452;2023-06-26T05:12:02;1.42;;;1.32;;
19645;SDS011;9971;52.446;13.452;2023-06-26T05:17:04;0.98;;;0.98;;
19645;SDS011;9971;52.446;13.452;2023-06-26T05:22:07;1.65;;;1.55;;
19645;SDS011;9971;52.446;13.452;2023-06-26T05:27:10;1.00;;;1.00;;
19645;SDS011;9971;52.446;13.452;2023-06-26T05:32:13;1.00;;;1.00;;
19645;SDS011;9971;52.446;13.452;2023-06-26T05:37:18;1.23;;;1.23;;
19645;SDS011;9971;52.446;13.452;2023-06-26T05:42:22;1.20;;;1.20;;
19645;SDS011;9971;52.446;13.452;2023-06-26T05:47:24;1.17;;;1.17;;
19645;SDS011;9971;52.446;13.452;2023-06-26T05:52:27;1.47;;;1.37;;
19645;SDS011;9971;52.446;13.452;2023-06-26T05:57:29;1.07;;;1.07;;
19645;SDS011;9971;52.446;13.452;2023-06-26T06:02:32;1.00;;;1.00;;
19645;SDS011;9971;52.446;13.452;2023-06-26T06:07:35;1.07;;;1.07;;
19645;SDS011;9971;52.446;13.452;2023-06-26T06:12:37;1.20;;;1.20;;
19645;SDS011;9971;52.446;13.452;2023-06-26T06:17:40;0.82;;;0.82;;
19645;SDS011;9971;52.446;13.452;2023-06-26T06:22:42;1.00;;;1.00;;
19645;SDS011;9971;52.446;13.452;2023-06-26T06:27:45;0.70;;;0.70;;
19645;SDS011;9971;52.446;13.452;2023-06-26T06:32:47;0.90;;;0.90;;
19645;SDS011;9971;52.446;13.452;2023-06-26T06:37:50;1.10;;;1.10;;
19645;SDS011;9971;52.446;13.452;2023-06-26T06:42:52;0.85;;;0.85;;
19645;SDS011;9971;52.446;13.452;2023-06-26T06:47:55;1.75;;;1.42;;
19645;SDS011;9971;52.446;13.452;2023-06-26T06:52:57;1.90;;;1.80;;
19645;SDS011;9971;52.446;13.452;2023-06-26T06:57:59;1.57;;;1.47;;
19645;SDS011;9971;52.446;13.452;2023-06-26T07:03:01;1.50;;;1.12;;
19645;SDS011;9971;52.446;13.452;2023-06-26T07:08:04;1.00;;;1.00;;
19645;SDS011;9971;52.446;13.452;2023-06-26T07:13:06;1.42;;;1.32;;
19645;SDS011;9971;52.446;13.452;2023-06-26T07:18:09;0.68;;;0.68;;
19645;SDS011;9971;52.446;13.452;2023-06-26T07:23:11;1.00;;;1.00;;
19645;SDS011;9971;52.446;13.452;2023-06-26T07:28:14;0.98;;;0.98;;
19645;SDS011;9971;52.446;13.452;2023-06-26T07:33:16;2.57;;;2.37;;
19645;SDS011;9971;52.446;13.452;2023-06-26T07:38:19;3.00;;;2.80;;
19645;SDS011;9971;52.446;13.452;2023-06-26T07:43:21;2.10;;;2.00;;
19645;SDS011;9971;52.446;13.452;2023-06-26T07:48:23;0.90;;;0.90;;
19645;SDS011;9971;52.446;13.452;2023-06-26T07:53:26;0.70;;;0.70;;
19645;SDS011;9971;52.446;13.452;2023-06-26T07:58:29;0.67;;;0.67;;
19645;SDS011;9971;52.446;13.452;2023-06-26T08:03:31;2.20;;;2.10;;
19645;SDS011;9971;52.446;13.452;2023-06-26T08:08:33;0.88;;;0.88;;
19645;SDS011;9971;52.446;13.452;2023-06-26T08:13:37;0.78;;;0.78;;
19645;SDS011;9971;52.446;13.452;2023-06-26T08:18:39;0.80;;;0.80;;
19645;SDS011;9971;52.446;13.452;2023-06-26T08:23:42;0.68;;;0.68;;
19645;SDS011;9971;52.446;13.452;2023-06-26T08:28:44;0.80;;;0.80;;
19645;SDS011;9971;52.446;13.452;2023-06-26T08:33:47;0.70;;;0.70;;
19645;SDS011;9971;52.446;13.452;2023-06-26T08:38:51;0.67;;;0.67;;
19645;SDS011;9971;52.446;13.452;2023-06-26T08:43:53;0.70;;;0.70;;
19645;SDS011;9971;52.446;13.452;2023-06-26T08:48:56;1.00;;;1.00;;
19645;SDS011;9971;52.446;13.452;2023-06-26T08:53:58;0.60;;;0.60;;
19645;SDS011;9971;52.446;13.452;2023-06-26T08:59:00;0.43;;;0.43;;
19645;SDS011;9971;52.446;13.452;2023-06-26T09:04:02;0.50;;;0.50;;
19645;SDS011;9971;52.446;13.452;2023-06-26T09:09:04;0.45;;;0.45;;
19645;SDS011;9971;52.446;13.452;2023-06-26T09:14:06;0.60;;;0.60;;
19645;SDS011;9971;52.446;13.452;2023-06-26T09:19:09;0.70;;;0.70;;
19645;SDS011;9971;52.446;13.452;2023-06-26T09:24:12;1.10;;;1.10;;
19645;SDS011;9971;52.446;13.452;2023-06-26T09:29:15;0.80;;;0.80;;
19645;SDS011;9971;52.446;13.452;2023-06-26T09:34:17;1.43;;;1.37;;
19645;SDS011;9971;52.446;13.452;2023-06-26T09:39:19;0.77;;;0.77;;
19645;SDS011;9971;52.446;13.452;2023-06-26T09:44:21;0.40;;;0.40;;
19645;SDS011;9971;52.446;13.452;2023-06-26T09:49:23;0.42;;;0.42;;
19645;SDS011;9971;52.446;13.452;2023-06-26T09:54:25;2.50;;;2.30;;
19645;SDS011;9971;52.446;13.452;2023-06-26T09:59:27;2.80;;;2.60;;
19645;SDS011;9971;52.446;13.452;2023-06-26T10:04:30;3.02;;;2.83;;
19645;SDS011;9971;52.446;13.452;2023-06-26T10:09:32;3.07;;;2.77;;
19645;SDS011;9971;52.446;13.452;2023-06-26T10:14:35;2.87;;;2.63;;
19645;SDS011;9971;52.446;13.452;2023-06-26T10:19:38;2.17;;;2.00;;
19645;SDS011;9971;52.446;13.452;2023-06-26T10:24:39;2.10;;;2.00;;
19645;SDS011;9971;52.446;13.452;2023-06-26T10:29:41;0.97;;;0.97;;
19645;SDS011;9971;52.446;13.452;2023-06-26T10:34:43;1.43;;;1.40;;
19645;SDS011;9971;52.446;13.452;2023-06-26T10:39:47;2.77;;;2.57;;
19645;SDS011;9971;52.446;13.452;2023-06-26T10:44:48;2.60;;;2.40;;
19645;SDS011;9971;52.446;13.452;2023-06-26T10:49:50;2.45;;;2.35;;
19645;SDS011;9971;52.446;13.452;2023-06-26T10:54:54;2.37;;;2.27;;
19645;SDS011;9971;52.446;13.452;2023-06-26T11:00:27;2.53;;;2.33;;
19645;SDS011;9971;52.446;13.452;2023-06-26T11:05:13;2.90;;;2.70;;
19645;SDS011;9971;52.446;13.452;2023-06-26T11:10:15;2.83;;;2.60;;
19645;SDS011;9971;52.446;13.452;2023-06-26T11:15:18;2.47;;;2.27;;
19645;SDS011;9971;52.446;13.452;2023-06-26T11:20:19;2.75;;;2.55;;
19645;SDS011;9971;52.446;13.452;2023-06-26T11:25:22;2.35;;;2.17;;
19645;SDS011;9971;52.446;13.452;2023-06-26T11:30:25;3.27;;;3.07;;
19645;SDS011;9971;52.446;13.452;2023-06-26T11:35:26;2.77;;;2.58;;
19645;SDS011;9971;52.446;13.452;2023-06-26T11:40:34;2.57;;;2.37;;
19645;SDS011;9971;52.446;13.452;2023-06-26T11:45:35;2.27;;;2.17;;
19645;SDS011;9971;52.446;13.452;2023-06-26T11:50:37;2.47;;;2.33;;
19645;SDS011;9971;52.446;13.452;2023-06-26T11:55:41;2.93;;;2.73;;
19645;SDS011;9971;52.446;13.452;2023-06-26T12:00:42;3.42;;;3.22;;
19645;SDS011;9971;52.446;13.452;2023-06-26T12:05:44;2.98;;;2.77;;
19645;SDS011;9971;52.446;13.452;2023-06-26T12:10:46;2.83;;;2.62;;
19645;SDS011;9971;52.446;13.452;2023-06-26T12:15:48;1.90;;;1.80;;
19645;SDS011;9971;52.446;13.452;2023-06-26T12:20:51;2.90;;;2.70;;
19645;SDS011;9971;52.446;13.452;2023-06-26T12:25:52;3.12;;;2.92;;
19645;SDS011;9971;52.446;13.452;2023-06-26T12:36:20;2.40;;;2.20;;
19645;SDS011;9971;52.446;13.452;2023-06-26T12:41:24;3.30;;;2.70;;
19645;SDS011;9971;52.446;13.452;2023-06-26T12:51:34;3.80;;;3.50;;
19645;SDS011;9971;52.446;13.452;2023-06-26T12:56:37;3.17;;;2.98;;
19645;SDS011;9971;52.446;13.452;2023-06-26T13:01:39;3.58;;;3.12;;
19645;SDS011;9971;52.446;13.452;2023-06-26T13:06:42;3.25;;;3.05;;
19645;SDS011;9971;52.446;13.452;2023-06-26T13:11:44;3.58;;;3.37;;
19645;SDS011;9971;52.446;13.452;2023-06-26T13:16:46;3.58;;;3.27;;
19645;SDS011;9971;52.446;13.452;2023-06-26T13:21:48;2.92;;;2.70;;
19645;SDS011;9971;52.446;13.452;2023-06-26T13:26:50;3.45;;;3.25;;
19645;SDS011;9971;52.446;13.452;2023-06-26T13:31:53;3.85;;;3.55;;
19645;SDS011;9971;52.446;13.452;2023-06-26T13:36:56;3.70;;;3.40;;
19645;SDS011;9971;52.446;13.452;2023-06-26T13:41:57;3.70;;;3.50;;
19645;SDS011;9971;52.446;13.452;2023-06-26T13:46:59;3.02;;;2.83;;
19645;SDS011;9971;52.446;13.452;2023-06-26T13:52:02;2.87;;;2.67;;
19645;SDS011;9971;52.446;13.452;2023-06-26T13:57:06;3.77;;;3.47;;
19645;SDS011;9971;52.446;13.452;2023-06-26T14:02:08;3.30;;;3.10;;
19645;SDS011;9971;52.446;13.452;2023-06-26T14:07:10;3.25;;;3.05;;
19645;SDS011;9971;52.446;13.452;2023-06-26T14:12:13;3.58;;;3.27;;
19645;SDS011;9971;52.446;13.452;2023-06-26T14:17:15;3.52;;;3.33;;
19645;SDS011;9971;52.446;13.452;2023-06-26T14:22:18;3.80;;;3.50;;
19645;SDS011;9971;52.446;13.452;2023-06-26T14:27:20;8.88;;;4.15;;
19645;SDS011;9971;52.446;13.452;2023-06-26T14:32:22;3.67;;;3.05;;
19645;SDS011;9971;52.446;13.452;2023-06-26T14:37:25;2.50;;;2.27;;
19645;SDS011;9971;52.446;13.452;2023-06-26T14:42:27;1.80;;;1.50;;
19645;SDS011;9971;52.446;13.452;2023-06-26T14:47:29;1.72;;;1.62;;
19645;SDS011;9971;52.446;13.452;2023-06-26T14:52:32;2.60;;;2.35;;
19645;SDS011;9971;52.446;13.452;2023-06-26T14:57:34;1.90;;;1.80;;
19645;SDS011;9971;52.446;13.452;2023-06-26T15:02:36;2.43;;;2.23;;
19645;SDS011;9971;52.446;13.452;2023-06-26T15:07:39;2.00;;;1.90;;
19645;SDS011;9971;52.446;13.452;2023-06-26T15:12:42;2.33;;;2.05;;
19645;SDS011;9971;52.446;13.452;2023-06-26T15:17:43;3.63;;;3.17;;
19645;SDS011;9971;52.446;13.452;2023-06-26T15:22:47;1.20;;;1.20;;
19645;SDS011;9971;52.446;13.452;2023-06-26T15:27:49;0.30;;;0.30;;
19645;SDS011;9971;52.446;13.452;2023-06-26T15:32:52;0.30;;;0.30;;
19645;SDS011;9971;52.446;13.452;2023-06-26T15:37:54;1.67;;;1.57;;
19645;SDS011;9971;52.446;13.452;2023-06-26T15:42:56;1.77;;;1.67;;
19645;SDS011;9971;52.446;13.452;2023-06-26T15:47:59;0.30;;;0.30;;
19645;SDS011;9971;52.446;13.452;2023-06-26T15:53:02;0.40;;;0.40;;
19645;SDS011;9971;52.446;13.452;2023-06-26T15:58:03;0.40;;;0.40;;
19645;SDS011;9971;52.446;13.452;2023-06-26T16:03:06;0.60;;;0.60;;
19645;SDS011;9971;52.446;13.452;2023-06-26T16:08:09;0.40;;;0.40;;
19645;SDS011;9971;52.446;13.452;2023-06-26T16:13:11;1.15;;;1.05;;
19645;SDS011;9971;52.446;13.452;2023-06-26T16:18:14;0.60;;;0.60;;
19645;SDS011;9971;52.446;13.452;2023-06-26T16:23:17;0.50;;;0.50;;
19645;SDS011;9971;52.446;13.452;2023-06-26T16:28:18;0.87;;;0.87;;
19645;SDS011;9971;52.446;13.452;2023-06-26T16:33:20;0.33;;;0.33;;
19645;SDS011;9971;52.446;13.452;2023-06-26T16:38:23;0.50;;;0.50;;
19645;SDS011;9971;52.446;13.452;2023-06-26T16:43:25;0.47;;;0.47;;
19645;SDS011;9971;52.446;13.452;2023-06-26T16:48:28;1.70;;;1.60;;
19645;SDS011;9971;52.446;13.452;2023-06-26T16:53:30;1.92;;;1.77;;
19645;SDS011;9971;52.446;13.452;2023-06-26T16:58:33;3.33;;;3.03;;
19645;SDS011;9971;52.446;13.452;2023-06-26T17:03:35;2.40;;;2.25;;
19645;SDS011;9971;52.446;13.452;2023-06-26T17:08:38;1.67;;;1.57;;
19645;SDS011;9971;52.446;13.452;2023-06-26T17:13:40;1.80;;;1.70;;
19645;SDS011;9971;52.446;13.452;2023-06-26T17:18:43;2.25;;;1.90;;
19645;SDS011;9971;52.446;13.452;2023-06-26T17:23:45;2.98;;;2.77;;
19645;SDS011;9971;52.446;13.452;2023-06-26T17:28:48;2.62;;;2.42;;
19645;SDS011;9971;52.446;13.452;2023-06-26T17:33:50;3.27;;;3.00;;
19645;SDS011;9971;52.446;13.452;2023-06-26T17:38:53;2.90;;;2.70;;
19645;SDS011;9971;52.446;13.452;2023-06-26T17:43:55;2.20;;;2.05;;
19645;SDS011;9971;52.446;13.452;2023-06-26T17:48:58;1.10;;;1.02;;
19645;SDS011;9971;52.446;13.452;2023-06-26T17:54:00;0.35;;;0.35;;
19645;SDS011;9971;52.446;13.452;2023-06-26T17:59:05;0.60;;;0.60;;
19645;SDS011;9971;52.446;13.452;2023-06-26T18:04:07;0.60;;;0.60;;
19645;SDS011;9971;52.446;13.452;2023-06-26T18:09:08;0.40;;;0.40;;
19645;SDS011;9971;52.446;13.452;2023-06-26T18:14:11;0.35;;;0.35;;
19645;SDS011;9971;52.446;13.452;2023-06-26T18:19:13;0.60;;;0.60;;
19645;SDS011;9971;52.446;13.452;2023-06-26T18:24:16;0.70;;;0.70;;
19645;SDS011;9971;52.446;13.452;2023-06-26T18:29:18;0.45;;;0.45;;
19645;SDS011;9971;52.446;13.452;2023-06-26T18:34:20;0.60;;;0.60;;
19645;SDS011;9971;52.446;13.452;2023-06-26T18:39:23;0.55;;;0.55;;
19645;SDS011;9971;52.446;13.452;2023-06-26T18:44:26;0.40;;;0.40;;
19645;SDS011;9971;52.446;13.452;2023-06-26T18:49:29;0.40;;;0.40;;
19645;SDS011;9971;52.446;13.452;2023-06-26T18:54:32;0.50;;;0.50;;
19645;SDS011;9971;52.446;13.452;2023-06-26T18:59:35;0.30;;;0.30;;
19645;SDS011;9971;52.446;13.452;2023-06-26T19:04:39;0.72;;;0.72;;
19645;SDS011;9971;52.446;13.452;2023-06-26T19:09:41;0.40;;;0.40;;
19645;SDS011;9971;52.446;13.452;2023-06-26T19:14:44;0.50;;;0.50;;
19645;SDS011;9971;52.446;13.452;2023-06-26T19:19:46;1.42;;;1.10;;
19645;SDS011;9971;52.446;13.452;2023-06-26T19:24:49;2.08;;;1.87;;
19645;SDS011;9971;52.446;13.452;2023-06-26T19:29:51;2.60;;;2.35;;
19645;SDS011;9971;52.446;13.452;2023-06-26T19:34:54;1.90;;;1.80;;
19645;SDS011;9971;52.446;13.452;2023-06-26T19:39:56;1.95;;;1.70;;
19645;SDS011;9971;52.446;13.452;2023-06-26T19:44:59;2.47;;;1.83;;
19645;SDS011;9971;52.446;13.452;2023-06-26T19:50:02;1.50;;;1.20;;
19645;SDS011;9971;52.446;13.452;2023-06-26T19:55:05;1.40;;;1.30;;
19645;SDS011;9971;52.446;13.452;2023-06-26T20:00:09;1.67;;;1.42;;
19645;SDS011;9971;52.446;13.452;2023-06-26T20:05:11;2.35;;;1.17;;
19645;SDS011;9971;52.446;13.452;2023-06-26T20:10:13;2.50;;;1.42;;
19645;SDS011;9971;52.446;13.452;2023-06-26T20:15:16;1.27;;;1.17;;
19645;SDS011;9971;52.446;13.452;2023-06-26T20:20:18;2.45;;;1.60;;
19645;SDS011;9971;52.446;13.452;2023-06-26T20:25:21;2.10;;;1.33;;
19645;SDS011;9971;52.446;13.452;2023-06-26T20:30:23;2.33;;;1.23;;
19645;SDS011;9971;52.446;13.452;2023-06-26T20:35:25;3.42;;;1.50;;
19645;SDS011;9971;52.446;13.452;2023-06-26T20:40:28;1.30;;;1.00;;
19645;SDS011;9971;52.446;13.452;2023-06-26T20:45:31;1.02;;;1.00;;
19645;SDS011;9971;52.446;13.452;2023-06-26T20:50:33;0.93;;;0.90;;
19645;SDS011;9971;52.446;13.452;2023-06-26T20:55:36;1.22;;;1.10;;
19645;SDS011;9971;52.446;13.452;2023-06-26T21:00:39;1.60;;;1.25;;
19645;SDS011;9971;52.446;13.452;2023-06-26T21:05:41;0.57;;;0.50;;
19645;SDS011;9971;52.446;13.452;2023-06-26T21:10:43;0.80;;;0.80;;
19645;SDS011;9971;52.446;13.452;2023-06-26T21:15:46;1.05;;;0.95;;
19645;SDS011;9971;52.446;13.452;2023-06-26T21:20:48;1.30;;;1.20;;
19645;SDS011;9971;52.446;13.452;2023-06-26T21:25:51;1.13;;;1.03;;
19645;SDS011;9971;52.446;13.452;2023-06-26T21:30:54;1.67;;;1.02;;
19645;SDS011;9971;52.446;13.452;2023-06-26T21:35:56;1.32;;;1.07;;
19645;SDS011;9971;52.446;13.452;2023-06-26T21:40:59;2.75;;;1.20;;
19645;SDS011;9971;52.446;13.452;2023-06-26T21:46:02;1.17;;;1.07;;
19645;SDS011;9971;52.446;13.452;2023-06-26T21:51:04;1.53;;;1.00;;
19645;SDS011;9971;52.446;13.452;2023-06-26T21:56:06;2.95;;;1.12;;
19645;SDS011;9971;52.446;13.452;2023-06-26T22:01:09;1.57;;;1.32;;
19645;SDS011;9971;52.446;13.452;2023-06-26T22:06:11;1.30;;;1.10;;
19645;SDS011;9971;52.446;13.452;2023-06-26T22:11:13;1.00;;;0.88;;
19645;SDS011;9971;52.446;13.452;2023-06-26T22:16:16;1.20;;;1.10;;
19645;SDS011;9971;52.446;13.452;2023-06-26T22:21:18;1.50;;;1.20;;
19645;SDS011;9971;52.446;13.452;2023-06-26T22:26:21;1.20;;;0.88;;
19645;SDS011;9971;52.446;13.452;2023-06-26T22:31:23;0.90;;;0.90;;
19645;SDS011;9971;52.446;13.452;2023-06-26T22:36:32;1.20;;;1.10;;
19645;SDS011;9971;52.446;13.452;2023-06-26T22:41:35;1.40;;;1.13;;
19645;SDS011;9971;52.446;13.452;2023-06-26T22:46:37;0.85;;;0.78;;
19645;SDS011;9971;52.446;13.452;2023-06-26T22:51:40;1.32;;;1.12;;
19645;SDS011;9971;52.446;13.452;2023-06-26T22:56:42;1.80;;;1.50;;
19645;SDS011;9971;52.446;13.452;2023-06-26T23:01:45;3.90;;;1.60;;
19645;SDS011;9971;52.446;13.452;2023-06-26T23:06:47;1.00;;;0.80;;
19645;SDS011;9971;52.446;13.452;2023-06-26T23:11:50;1.40;;;1.30;;
19645;SDS011;9971;52.446;13.452;2023-06-26T23:16:54;2.67;;;1.27;;
19645;SDS011;9971;52.446;13.452;2023-06-26T23:21:54;3.37;;;1.40;;
19645;SDS011;9971;52.446;13.452;2023-06-26T23:26:56;2.33;;;1.40;;
19645;SDS011;9971;52.446;13.452;2023-06-26T23:31:59;1.32;;;1.12;;
19645;SDS011;9971;52.446;13.452;2023-06-26T23:37:01;2.00;;;1.40;;
19645;SDS011;9971;52.446;13.452;2023-06-26T23:42:05;1.05;;;0.70;;
19645;SDS011;9971;52.446;13.452;2023-06-26T23:47:06;1.85;;;1.10;;
19645;SDS011;9971;52.446;13.452;2023-06-26T23:52:09;2.42;;;1.10;;
19645;SDS011;9971;52.446;13.452;2023-06-26T23:57:11;1.67;;;1.37;;
